sensor_id;sensor_type;location;lat;lon;timestamp;P1;durP1;ratioP1;P2;durP2;ratioP2
18796;SDS011;9526;52.612;13.300;2023-02-28T00:02:12;15.43;;;7.93;;
18796;SDS011;9526;52.612;13.300;2023-02-28T00:04:35;18.77;;;7.77;;
18796;SDS011;9526;52.612;13.300;2023-02-28T00:06:59;14.07;;;7.10;;
18796;SDS011;9526;52.612;13.300;2023-02-28T00:09:22;14.57;;;7.17;;
18796;SDS011;9526;52.612;13.300;2023-02-28T00:11:46;14.20;;;7.50;;
18796;SDS011;9526;52.612;13.300;2023-02-28T00:14:11;14.13;;;7.90;;
18796;SDS011;9526;52.612;13.300;2023-02-28T00:16:35;16.87;;;6.97;;
18796;SDS011;9526;52.612;13.300;2023-02-28T00:18:58;13.47;;;7.00;;
18796;SDS011;9526;52.612;13.300;2023-02-28T00:21:22;15.13;;;6.93;;
18796;SDS011;9526;52.612;13.300;2023-02-28T00:23:46;12.70;;;7.37;;
18796;SDS011;9526;52.612;13.300;2023-02-28T00:26:10;13.40;;;6.97;;
18796;SDS011;9526;52.612;13.300;2023-02-28T00:28:37;12.67;;;6.73;;
18796;SDS011;9526;52.612;13.300;2023-02-28T00:31:03;12.40;;;6.67;;
18796;SDS011;9526;52.612;13.300;2023-02-28T00:33:29;13.03;;;7.13;;
18796;SDS011;9526;52.612;13.300;2023-02-28T00:36:00;11.60;;;6.70;;
18796;SDS011;9526;52.612;13.300;2023-02-28T00:38:26;15.20;;;7.90;;
18796;SDS011;9526;52.612;13.300;2023-02-28T00:40:49;14.63;;;7.73;;
18796;SDS011;9526;52.612;13.300;2023-02-28T00:43:13;14.13;;;7.43;;
18796;SDS011;9526;52.612;13.300;2023-02-28T00:45:38;12.17;;;7.43;;
18796;SDS011;9526;52.612;13.300;2023-02-28T00:48:04;16.33;;;7.50;;
18796;SDS011;9526;52.612;13.300;2023-02-28T00:50:28;16.80;;;7.97;;
18796;SDS011;9526;52.612;13.300;2023-02-28T00:52:51;12.27;;;7.03;;
18796;SDS011;9526;52.612;13.300;2023-02-28T00:55:15;19.90;;;7.43;;
18796;SDS011;9526;52.612;13.300;2023-02-28T00:57:39;13.30;;;7.13;;
18796;SDS011;9526;52.612;13.300;2023-02-28T01:00:04;15.00;;;7.63;;
18796;SDS011;9526;52.612;13.300;2023-02-28T01:02:29;14.27;;;7.27;;
18796;SDS011;9526;52.612;13.300;2023-02-28T01:04:54;14.30;;;7.63;;
18796;SDS011;9526;52.612;13.300;2023-02-28T01:07:19;13.57;;;7.60;;
18796;SDS011;9526;52.612;13.300;2023-02-28T01:09:42;15.10;;;7.17;;
18796;SDS011;9526;52.612;13.300;2023-02-28T01:12:06;14.63;;;7.20;;
18796;SDS011;9526;52.612;13.300;2023-02-28T01:14:31;15.43;;;7.93;;
18796;SDS011;9526;52.612;13.300;2023-02-28T01:16:54;15.63;;;8.00;;
18796;SDS011;9526;52.612;13.300;2023-02-28T01:19:19;17.77;;;7.67;;
18796;SDS011;9526;52.612;13.300;2023-02-28T01:21:44;14.87;;;8.20;;
18796;SDS011;9526;52.612;13.300;2023-02-28T01:24:07;14.27;;;7.47;;
18796;SDS011;9526;52.612;13.300;2023-02-28T01:26:31;15.20;;;7.40;;
18796;SDS011;9526;52.612;13.300;2023-02-28T01:28:55;14.60;;;7.70;;
18796;SDS011;9526;52.612;13.300;2023-02-28T01:31:20;14.10;;;7.47;;
18796;SDS011;9526;52.612;13.300;2023-02-28T01:33:45;16.37;;;7.90;;
18796;SDS011;9526;52.612;13.300;2023-02-28T01:36:11;16.00;;;7.73;;
18796;SDS011;9526;52.612;13.300;2023-02-28T01:38:37;14.47;;;7.90;;
18796;SDS011;9526;52.612;13.300;2023-02-28T01:41:01;14.07;;;7.40;;
18796;SDS011;9526;52.612;13.300;2023-02-28T01:43:27;15.43;;;7.13;;
18796;SDS011;9526;52.612;13.300;2023-02-28T01:45:53;14.57;;;7.57;;
18796;SDS011;9526;52.612;13.300;2023-02-28T01:48:19;18.73;;;8.13;;
18796;SDS011;9526;52.612;13.300;2023-02-28T01:50:48;20.57;;;7.10;;
18796;SDS011;9526;52.612;13.300;2023-02-28T01:53:13;11.67;;;6.97;;
18796;SDS011;9526;52.612;13.300;2023-02-28T01:55:42;13.97;;;7.40;;
18796;SDS011;9526;52.612;13.300;2023-02-28T01:58:11;14.33;;;7.57;;
18796;SDS011;9526;52.612;13.300;2023-02-28T02:00:35;12.87;;;6.90;;
18796;SDS011;9526;52.612;13.300;2023-02-28T02:03:01;12.10;;;6.57;;
18796;SDS011;9526;52.612;13.300;2023-02-28T02:05:31;15.93;;;7.50;;
18796;SDS011;9526;52.612;13.300;2023-02-28T02:07:56;14.60;;;6.93;;
18796;SDS011;9526;52.612;13.300;2023-02-28T02:10:27;15.37;;;7.43;;
18796;SDS011;9526;52.612;13.300;2023-02-28T02:13:02;13.90;;;6.63;;
18796;SDS011;9526;52.612;13.300;2023-02-28T02:15:54;13.87;;;6.80;;
18796;SDS011;9526;52.612;13.300;2023-02-28T02:18:29;16.10;;;7.70;;
18796;SDS011;9526;52.612;13.300;2023-02-28T02:24:29;13.77;;;7.10;;
18796;SDS011;9526;52.612;13.300;2023-02-28T02:27:32;15.07;;;6.93;;
18796;SDS011;9526;52.612;13.300;2023-02-28T02:33:32;16.27;;;8.10;;
18796;SDS011;9526;52.612;13.300;2023-02-28T02:36:47;13.97;;;6.87;;
18796;SDS011;9526;52.612;13.300;2023-02-28T02:39:13;14.97;;;7.70;;
18796;SDS011;9526;52.612;13.300;2023-02-28T02:41:45;15.07;;;7.50;;
18796;SDS011;9526;52.612;13.300;2023-02-28T02:44:14;13.13;;;7.23;;
18796;SDS011;9526;52.612;13.300;2023-02-28T02:46:42;15.63;;;7.70;;
18796;SDS011;9526;52.612;13.300;2023-02-28T02:49:08;14.40;;;7.27;;
18796;SDS011;9526;52.612;13.300;2023-02-28T02:51:36;18.23;;;7.23;;
18796;SDS011;9526;52.612;13.300;2023-02-28T02:54:05;17.70;;;7.00;;
18796;SDS011;9526;52.612;13.300;2023-02-28T02:56:34;18.77;;;8.40;;
18796;SDS011;9526;52.612;13.300;2023-02-28T02:59:02;14.37;;;7.27;;
18796;SDS011;9526;52.612;13.300;2023-02-28T03:01:31;15.47;;;6.93;;
18796;SDS011;9526;52.612;13.300;2023-02-28T03:03:58;16.77;;;7.33;;
18796;SDS011;9526;52.612;13.300;2023-02-28T03:06:25;18.77;;;7.43;;
18796;SDS011;9526;52.612;13.300;2023-02-28T03:08:49;18.40;;;7.67;;
18796;SDS011;9526;52.612;13.300;2023-02-28T03:11:14;15.67;;;7.23;;
18796;SDS011;9526;52.612;13.300;2023-02-28T03:13:44;14.53;;;7.67;;
18796;SDS011;9526;52.612;13.300;2023-02-28T03:16:29;17.27;;;7.97;;
18796;SDS011;9526;52.612;13.300;2023-02-28T03:19:03;17.97;;;7.60;;
18796;SDS011;9526;52.612;13.300;2023-02-28T03:21:58;14.77;;;7.87;;
18796;SDS011;9526;52.612;13.300;2023-02-28T03:24:43;15.57;;;7.73;;
18796;SDS011;9526;52.612;13.300;2023-02-28T03:27:15;17.37;;;7.87;;
18796;SDS011;9526;52.612;13.300;2023-02-28T03:29:46;13.27;;;7.27;;
18796;SDS011;9526;52.612;13.300;2023-02-28T03:32:16;15.73;;;7.50;;
18796;SDS011;9526;52.612;13.300;2023-02-28T03:34:47;16.77;;;7.97;;
18796;SDS011;9526;52.612;13.300;2023-02-28T03:37:18;17.17;;;7.83;;
18796;SDS011;9526;52.612;13.300;2023-02-28T03:39:46;15.03;;;7.60;;
18796;SDS011;9526;52.612;13.300;2023-02-28T03:42:19;14.90;;;7.70;;
18796;SDS011;9526;52.612;13.300;2023-02-28T03:44:46;17.40;;;7.33;;
18796;SDS011;9526;52.612;13.300;2023-02-28T03:47:16;17.53;;;8.17;;
18796;SDS011;9526;52.612;13.300;2023-02-28T03:49:46;13.47;;;6.87;;
18796;SDS011;9526;52.612;13.300;2023-02-28T03:52:17;17.83;;;7.50;;
18796;SDS011;9526;52.612;13.300;2023-02-28T03:54:46;14.53;;;7.63;;
18796;SDS011;9526;52.612;13.300;2023-02-28T03:57:15;16.60;;;7.97;;
18796;SDS011;9526;52.612;13.300;2023-02-28T03:59:46;17.13;;;7.40;;
18796;SDS011;9526;52.612;13.300;2023-02-28T04:02:13;20.20;;;8.87;;
18796;SDS011;9526;52.612;13.300;2023-02-28T04:04:37;18.00;;;8.80;;
18796;SDS011;9526;52.612;13.300;2023-02-28T04:07:10;20.00;;;9.00;;
18796;SDS011;9526;52.612;13.300;2023-02-28T04:09:35;19.70;;;8.93;;
18796;SDS011;9526;52.612;13.300;2023-02-28T04:11:58;19.53;;;8.77;;
18796;SDS011;9526;52.612;13.300;2023-02-28T04:14:23;19.70;;;8.60;;
18796;SDS011;9526;52.612;13.300;2023-02-28T04:16:47;20.13;;;8.67;;
18796;SDS011;9526;52.612;13.300;2023-02-28T04:19:12;22.87;;;8.10;;
18796;SDS011;9526;52.612;13.300;2023-02-28T04:21:37;18.47;;;8.97;;
18796;SDS011;9526;52.612;13.300;2023-02-28T04:24:03;16.93;;;8.70;;
18796;SDS011;9526;52.612;13.300;2023-02-28T04:26:28;16.17;;;7.87;;
18796;SDS011;9526;52.612;13.300;2023-02-28T04:28:52;18.33;;;8.20;;
18796;SDS011;9526;52.612;13.300;2023-02-28T04:31:17;15.03;;;7.97;;
18796;SDS011;9526;52.612;13.300;2023-02-28T04:33:41;17.80;;;7.93;;
18796;SDS011;9526;52.612;13.300;2023-02-28T04:36:05;16.17;;;8.00;;
18796;SDS011;9526;52.612;13.300;2023-02-28T04:38:32;20.33;;;8.47;;
18796;SDS011;9526;52.612;13.300;2023-02-28T04:40:57;17.87;;;8.60;;
18796;SDS011;9526;52.612;13.300;2023-02-28T04:43:21;16.93;;;8.20;;
18796;SDS011;9526;52.612;13.300;2023-02-28T04:45:45;16.70;;;8.40;;
18796;SDS011;9526;52.612;13.300;2023-02-28T04:48:10;15.63;;;8.00;;
18796;SDS011;9526;52.612;13.300;2023-02-28T04:50:33;17.57;;;7.63;;
18796;SDS011;9526;52.612;13.300;2023-02-28T04:52:57;14.53;;;7.17;;
18796;SDS011;9526;52.612;13.300;2023-02-28T04:55:20;15.23;;;7.23;;
18796;SDS011;9526;52.612;13.300;2023-02-28T04:57:44;15.97;;;7.87;;
18796;SDS011;9526;52.612;13.300;2023-02-28T05:00:08;17.73;;;7.90;;
18796;SDS011;9526;52.612;13.300;2023-02-28T05:02:34;14.67;;;7.93;;
18796;SDS011;9526;52.612;13.300;2023-02-28T05:04:59;17.70;;;7.90;;
18796;SDS011;9526;52.612;13.300;2023-02-28T05:07:23;18.53;;;7.87;;
18796;SDS011;9526;52.612;13.300;2023-02-28T05:09:46;14.13;;;7.87;;
18796;SDS011;9526;52.612;13.300;2023-02-28T05:12:10;14.83;;;8.10;;
18796;SDS011;9526;52.612;13.300;2023-02-28T05:14:33;14.97;;;7.47;;
18796;SDS011;9526;52.612;13.300;2023-02-28T05:16:58;18.27;;;8.37;;
18796;SDS011;9526;52.612;13.300;2023-02-28T05:19:21;19.93;;;8.23;;
18796;SDS011;9526;52.612;13.300;2023-02-28T05:21:50;17.93;;;7.90;;
18796;SDS011;9526;52.612;13.300;2023-02-28T05:24:16;14.30;;;7.80;;
18796;SDS011;9526;52.612;13.300;2023-02-28T05:26:43;17.47;;;7.60;;
18796;SDS011;9526;52.612;13.300;2023-02-28T05:29:07;19.40;;;8.43;;
18796;SDS011;9526;52.612;13.300;2023-02-28T05:31:31;18.17;;;7.70;;
18796;SDS011;9526;52.612;13.300;2023-02-28T05:33:55;14.23;;;7.40;;
18796;SDS011;9526;52.612;13.300;2023-02-28T05:36:19;17.80;;;7.40;;
18796;SDS011;9526;52.612;13.300;2023-02-28T05:38:44;18.57;;;8.00;;
18796;SDS011;9526;52.612;13.300;2023-02-28T05:41:10;16.73;;;8.20;;
18796;SDS011;9526;52.612;13.300;2023-02-28T05:43:34;16.23;;;8.07;;
18796;SDS011;9526;52.612;13.300;2023-02-28T05:45:58;19.90;;;7.90;;
18796;SDS011;9526;52.612;13.300;2023-02-28T05:48:22;15.73;;;8.13;;
18796;SDS011;9526;52.612;13.300;2023-02-28T05:50:46;15.30;;;7.83;;
18796;SDS011;9526;52.612;13.300;2023-02-28T05:53:10;14.23;;;8.13;;
18796;SDS011;9526;52.612;13.300;2023-02-28T05:55:35;16.53;;;8.17;;
18796;SDS011;9526;52.612;13.300;2023-02-28T05:57:59;17.37;;;7.97;;
18796;SDS011;9526;52.612;13.300;2023-02-28T06:00:23;15.47;;;8.33;;
18796;SDS011;9526;52.612;13.300;2023-02-28T06:02:48;15.97;;;8.10;;
18796;SDS011;9526;52.612;13.300;2023-02-28T06:05:13;15.33;;;8.30;;
18796;SDS011;9526;52.612;13.300;2023-02-28T06:07:38;18.07;;;9.03;;
18796;SDS011;9526;52.612;13.300;2023-02-28T06:10:02;18.33;;;8.43;;
18796;SDS011;9526;52.612;13.300;2023-02-28T06:12:28;19.50;;;8.43;;
18796;SDS011;9526;52.612;13.300;2023-02-28T06:14:51;16.83;;;7.57;;
18796;SDS011;9526;52.612;13.300;2023-02-28T06:17:15;18.80;;;8.80;;
18796;SDS011;9526;52.612;13.300;2023-02-28T06:19:38;17.27;;;8.43;;
18796;SDS011;9526;52.612;13.300;2023-02-28T06:22:02;16.87;;;8.57;;
18796;SDS011;9526;52.612;13.300;2023-02-28T06:24:26;16.23;;;8.53;;
18796;SDS011;9526;52.612;13.300;2023-02-28T06:26:53;16.83;;;8.20;;
18796;SDS011;9526;52.612;13.300;2023-02-28T06:29:18;18.47;;;8.93;;
18796;SDS011;9526;52.612;13.300;2023-02-28T06:31:42;14.97;;;7.83;;
18796;SDS011;9526;52.612;13.300;2023-02-28T06:34:06;17.27;;;7.93;;
18796;SDS011;9526;52.612;13.300;2023-02-28T06:36:30;17.13;;;8.27;;
18796;SDS011;9526;52.612;13.300;2023-02-28T06:38:53;18.33;;;8.60;;
18796;SDS011;9526;52.612;13.300;2023-02-28T06:41:17;18.93;;;8.70;;
18796;SDS011;9526;52.612;13.300;2023-02-28T06:43:41;20.00;;;9.67;;
18796;SDS011;9526;52.612;13.300;2023-02-28T06:46:07;17.93;;;8.80;;
18796;SDS011;9526;52.612;13.300;2023-02-28T06:48:35;21.63;;;8.73;;
18796;SDS011;9526;52.612;13.300;2023-02-28T06:51:02;17.13;;;8.27;;
18796;SDS011;9526;52.612;13.300;2023-02-28T06:53:28;18.00;;;8.80;;
18796;SDS011;9526;52.612;13.300;2023-02-28T06:55:52;20.23;;;8.83;;
18796;SDS011;9526;52.612;13.300;2023-02-28T06:58:15;20.77;;;8.90;;
18796;SDS011;9526;52.612;13.300;2023-02-28T07:00:40;21.67;;;8.93;;
18796;SDS011;9526;52.612;13.300;2023-02-28T07:03:06;19.27;;;9.40;;
18796;SDS011;9526;52.612;13.300;2023-02-28T07:05:30;19.77;;;8.93;;
18796;SDS011;9526;52.612;13.300;2023-02-28T07:07:53;22.23;;;9.40;;
18796;SDS011;9526;52.612;13.300;2023-02-28T07:10:18;22.30;;;9.83;;
18796;SDS011;9526;52.612;13.300;2023-02-28T07:12:42;23.43;;;10.77;;
18796;SDS011;9526;52.612;13.300;2023-02-28T07:15:06;20.27;;;10.03;;
18796;SDS011;9526;52.612;13.300;2023-02-28T07:17:31;24.60;;;11.10;;
18796;SDS011;9526;52.612;13.300;2023-02-28T07:19:56;27.27;;;13.90;;
18796;SDS011;9526;52.612;13.300;2023-02-28T07:22:20;55.47;;;25.43;;
18796;SDS011;9526;52.612;13.300;2023-02-28T07:24:44;46.97;;;21.70;;
18796;SDS011;9526;52.612;13.300;2023-02-28T07:27:07;39.97;;;18.77;;
18796;SDS011;9526;52.612;13.300;2023-02-28T07:29:31;38.90;;;18.80;;
18796;SDS011;9526;52.612;13.300;2023-02-28T07:31:55;31.00;;;15.77;;
18796;SDS011;9526;52.612;13.300;2023-02-28T07:34:19;29.07;;;12.50;;
18796;SDS011;9526;52.612;13.300;2023-02-28T07:36:44;23.87;;;12.23;;
18796;SDS011;9526;52.612;13.300;2023-02-28T07:39:07;23.43;;;10.63;;
18796;SDS011;9526;52.612;13.300;2023-02-28T07:41:31;21.70;;;11.60;;
18796;SDS011;9526;52.612;13.300;2023-02-28T07:43:59;17.93;;;10.23;;
18796;SDS011;9526;52.612;13.300;2023-02-28T07:46:23;17.43;;;9.70;;
18796;SDS011;9526;52.612;13.300;2023-02-28T07:48:49;22.23;;;9.83;;
18796;SDS011;9526;52.612;13.300;2023-02-28T07:51:12;17.60;;;9.40;;
18796;SDS011;9526;52.612;13.300;2023-02-28T07:53:37;19.83;;;10.23;;
18796;SDS011;9526;52.612;13.300;2023-02-28T07:56:01;17.97;;;10.07;;
18796;SDS011;9526;52.612;13.300;2023-02-28T07:58:26;23.93;;;10.53;;
18796;SDS011;9526;52.612;13.300;2023-02-28T08:00:50;23.30;;;9.80;;
18796;SDS011;9526;52.612;13.300;2023-02-28T08:03:14;18.90;;;9.60;;
18796;SDS011;9526;52.612;13.300;2023-02-28T08:05:38;21.60;;;10.33;;
18796;SDS011;9526;52.612;13.300;2023-02-28T08:08:02;21.00;;;10.40;;
18796;SDS011;9526;52.612;13.300;2023-02-28T08:10:27;21.40;;;10.37;;
18796;SDS011;9526;52.612;13.300;2023-02-28T08:12:51;22.07;;;10.13;;
18796;SDS011;9526;52.612;13.300;2023-02-28T08:15:14;22.30;;;9.67;;
18796;SDS011;9526;52.612;13.300;2023-02-28T08:17:38;25.37;;;10.27;;
18796;SDS011;9526;52.612;13.300;2023-02-28T08:20:02;18.87;;;9.57;;
18796;SDS011;9526;52.612;13.300;2023-02-28T08:22:26;19.07;;;9.90;;
18796;SDS011;9526;52.612;13.300;2023-02-28T08:24:50;18.40;;;9.67;;
18796;SDS011;9526;52.612;13.300;2023-02-28T08:27:15;20.47;;;9.47;;
18796;SDS011;9526;52.612;13.300;2023-02-28T08:29:38;17.90;;;9.50;;
18796;SDS011;9526;52.612;13.300;2023-02-28T08:32:02;18.03;;;9.97;;
18796;SDS011;9526;52.612;13.300;2023-02-28T08:34:31;19.53;;;10.07;;
18796;SDS011;9526;52.612;13.300;2023-02-28T08:36:54;20.70;;;10.43;;
18796;SDS011;9526;52.612;13.300;2023-02-28T08:39:18;24.33;;;10.57;;
18796;SDS011;9526;52.612;13.300;2023-02-28T08:41:42;15.93;;;7.60;;
18796;SDS011;9526;52.612;13.300;2023-02-28T08:44:09;27.33;;;14.27;;
18796;SDS011;9526;52.612;13.300;2023-02-28T08:46:33;24.33;;;14.23;;
18796;SDS011;9526;52.612;13.300;2023-02-28T08:48:57;18.80;;;9.93;;
18796;SDS011;9526;52.612;13.300;2023-02-28T08:51:22;28.17;;;13.07;;
18796;SDS011;9526;52.612;13.300;2023-02-28T08:53:49;46.00;;;24.03;;
18796;SDS011;9526;52.612;13.300;2023-02-28T08:56:13;15.03;;;7.93;;
18796;SDS011;9526;52.612;13.300;2023-02-28T08:58:38;11.90;;;6.83;;
18796;SDS011;9526;52.612;13.300;2023-02-28T09:01:08;9.33;;;5.13;;
18796;SDS011;9526;52.612;13.300;2023-02-28T09:03:34;7.30;;;4.37;;
18796;SDS011;9526;52.612;13.300;2023-02-28T09:05:59;7.33;;;3.77;;
18796;SDS011;9526;52.612;13.300;2023-02-28T09:08:23;9.67;;;3.77;;
18796;SDS011;9526;52.612;13.300;2023-02-28T09:10:48;5.77;;;3.33;;
18796;SDS011;9526;52.612;13.300;2023-02-28T09:13:12;5.57;;;3.33;;
18796;SDS011;9526;52.612;13.300;2023-02-28T09:15:36;6.97;;;3.55;;
18796;SDS011;9526;52.612;13.300;2023-02-28T09:18:02;5.85;;;3.30;;
18796;SDS011;9526;52.612;13.300;2023-02-28T09:20:25;6.47;;;3.63;;
18796;SDS011;9526;52.612;13.300;2023-02-28T09:22:49;4.78;;;3.22;;
18796;SDS011;9526;52.612;13.300;2023-02-28T09:25:12;5.70;;;2.78;;
18796;SDS011;9526;52.612;13.300;2023-02-28T09:27:36;5.00;;;2.90;;
18796;SDS011;9526;52.612;13.300;2023-02-28T09:30:02;4.13;;;2.83;;
18796;SDS011;9526;52.612;13.300;2023-02-28T09:32:26;4.40;;;3.00;;
18796;SDS011;9526;52.612;13.300;2023-02-28T09:34:51;5.35;;;3.17;;
18796;SDS011;9526;52.612;13.300;2023-02-28T09:37:15;4.30;;;2.70;;
18796;SDS011;9526;52.612;13.300;2023-02-28T09:39:39;4.80;;;3.15;;
18796;SDS011;9526;52.612;13.300;2023-02-28T09:42:03;5.53;;;3.10;;
18796;SDS011;9526;52.612;13.300;2023-02-28T09:44:30;5.45;;;3.08;;
18796;SDS011;9526;52.612;13.300;2023-02-28T09:46:59;4.35;;;3.13;;
18796;SDS011;9526;52.612;13.300;2023-02-28T09:49:33;4.05;;;3.00;;
18796;SDS011;9526;52.612;13.300;2023-02-28T09:52:05;5.13;;;3.20;;
18796;SDS011;9526;52.612;13.300;2023-02-28T09:54:33;5.28;;;3.03;;
18796;SDS011;9526;52.612;13.300;2023-02-28T09:56:59;3.90;;;2.72;;
18796;SDS011;9526;52.612;13.300;2023-02-28T09:59:31;6.45;;;3.15;;
18796;SDS011;9526;52.612;13.300;2023-02-28T10:02:04;3.63;;;3.00;;
18796;SDS011;9526;52.612;13.300;2023-02-28T10:04:54;5.72;;;2.92;;
18796;SDS011;9526;52.612;13.300;2023-02-28T10:07:28;4.20;;;2.80;;
18796;SDS011;9526;52.612;13.300;2023-02-28T10:10:14;4.68;;;2.70;;
18796;SDS011;9526;52.612;13.300;2023-02-28T10:12:44;4.70;;;2.13;;
18796;SDS011;9526;52.612;13.300;2023-02-28T10:15:12;4.50;;;2.50;;
18796;SDS011;9526;52.612;13.300;2023-02-28T10:17:39;4.57;;;2.00;;
18796;SDS011;9526;52.612;13.300;2023-02-28T10:20:26;3.53;;;2.47;;
18796;SDS011;9526;52.612;13.300;2023-02-28T10:22:57;4.38;;;2.42;;
18796;SDS011;9526;52.612;13.300;2023-02-28T10:25:28;2.53;;;2.30;;
18796;SDS011;9526;52.612;13.300;2023-02-28T10:27:52;3.60;;;2.40;;
18796;SDS011;9526;52.612;13.300;2023-02-28T10:30:20;3.25;;;2.42;;
18796;SDS011;9526;52.612;13.300;2023-02-28T10:32:45;4.93;;;2.42;;
18796;SDS011;9526;52.612;13.300;2023-02-28T10:35:15;4.30;;;2.50;;
18796;SDS011;9526;52.612;13.300;2023-02-28T10:37:42;3.72;;;2.30;;
18796;SDS011;9526;52.612;13.300;2023-02-28T10:40:25;2.97;;;2.20;;
18796;SDS011;9526;52.612;13.300;2023-02-28T10:42:55;3.03;;;2.10;;
18796;SDS011;9526;52.612;13.300;2023-02-28T10:45:20;3.00;;;2.10;;
18796;SDS011;9526;52.612;13.300;2023-02-28T10:47:52;7.70;;;2.40;;
18796;SDS011;9526;52.612;13.300;2023-02-28T10:50:39;3.47;;;2.70;;
18796;SDS011;9526;52.612;13.300;2023-02-28T10:53:16;4.25;;;2.42;;
18796;SDS011;9526;52.612;13.300;2023-02-28T10:56:04;2.80;;;2.00;;
18796;SDS011;9526;52.612;13.300;2023-02-28T10:58:30;5.47;;;2.50;;
18796;SDS011;9526;52.612;13.300;2023-02-28T11:01:13;6.32;;;2.65;;
18796;SDS011;9526;52.612;13.300;2023-02-28T11:03:39;7.32;;;2.40;;
18796;SDS011;9526;52.612;13.300;2023-02-28T11:06:06;6.13;;;3.17;;
18796;SDS011;9526;52.612;13.300;2023-02-28T11:08:42;5.43;;;3.03;;
18796;SDS011;9526;52.612;13.300;2023-02-28T11:11:11;5.15;;;2.75;;
18796;SDS011;9526;52.612;13.300;2023-02-28T11:13:35;4.28;;;2.83;;
18796;SDS011;9526;52.612;13.300;2023-02-28T11:16:00;6.22;;;3.17;;
18796;SDS011;9526;52.612;13.300;2023-02-28T11:18:28;5.22;;;3.20;;
18796;SDS011;9526;52.612;13.300;2023-02-28T11:20:59;5.25;;;2.90;;
18796;SDS011;9526;52.612;13.300;2023-02-28T11:23:25;6.65;;;2.78;;
18796;SDS011;9526;52.612;13.300;2023-02-28T11:25:52;5.10;;;2.50;;
18796;SDS011;9526;52.612;13.300;2023-02-28T11:28:25;5.07;;;3.03;;
18796;SDS011;9526;52.612;13.300;2023-02-28T11:30:59;4.85;;;2.92;;
18796;SDS011;9526;52.612;13.300;2023-02-28T11:33:27;5.10;;;2.50;;
18796;SDS011;9526;52.612;13.300;2023-02-28T11:35:53;5.70;;;2.72;;
18796;SDS011;9526;52.612;13.300;2023-02-28T11:38:23;3.97;;;2.58;;
18796;SDS011;9526;52.612;13.300;2023-02-28T11:40:48;4.63;;;2.67;;
18796;SDS011;9526;52.612;13.300;2023-02-28T11:43:28;5.43;;;2.53;;
18796;SDS011;9526;52.612;13.300;2023-02-28T11:46:06;3.95;;;2.42;;
18796;SDS011;9526;52.612;13.300;2023-02-28T11:48:46;4.25;;;2.20;;
18796;SDS011;9526;52.612;13.300;2023-02-28T11:51:21;4.85;;;2.60;;
18796;SDS011;9526;52.612;13.300;2023-02-28T11:53:53;5.53;;;2.80;;
18796;SDS011;9526;52.612;13.300;2023-02-28T11:56:47;4.25;;;2.90;;
18796;SDS011;9526;52.612;13.300;2023-02-28T11:59:22;3.97;;;2.72;;
18796;SDS011;9526;52.612;13.300;2023-02-28T12:02:06;5.03;;;3.15;;
18796;SDS011;9526;52.612;13.300;2023-02-28T12:04:52;5.22;;;2.97;;
18796;SDS011;9526;52.612;13.300;2023-02-28T12:07:31;6.38;;;2.67;;
18796;SDS011;9526;52.612;13.300;2023-02-28T12:10:07;4.07;;;2.88;;
18796;SDS011;9526;52.612;13.300;2023-02-28T12:12:45;4.18;;;2.75;;
18796;SDS011;9526;52.612;13.300;2023-02-28T12:15:26;3.97;;;2.75;;
18796;SDS011;9526;52.612;13.300;2023-02-28T12:18:20;5.57;;;2.50;;
18796;SDS011;9526;52.612;13.300;2023-02-28T12:20:59;4.53;;;2.50;;
18796;SDS011;9526;52.612;13.300;2023-02-28T12:23:38;5.07;;;3.00;;
18796;SDS011;9526;52.612;13.300;2023-02-28T12:26:45;6.22;;;3.10;;
18796;SDS011;9526;52.612;13.300;2023-02-28T12:29:12;4.50;;;2.88;;
18796;SDS011;9526;52.612;13.300;2023-02-28T12:31:43;4.88;;;3.00;;
18796;SDS011;9526;52.612;13.300;2023-02-28T12:34:13;3.55;;;2.50;;
18796;SDS011;9526;52.612;13.300;2023-02-28T12:36:43;4.18;;;2.60;;
18796;SDS011;9526;52.612;13.300;2023-02-28T12:39:08;6.65;;;2.63;;
18796;SDS011;9526;52.612;13.300;2023-02-28T12:41:39;4.35;;;3.05;;
18796;SDS011;9526;52.612;13.300;2023-02-28T12:44:08;6.47;;;2.83;;
18796;SDS011;9526;52.612;13.300;2023-02-28T12:46:36;4.97;;;2.78;;
18796;SDS011;9526;52.612;13.300;2023-02-28T12:49:06;4.80;;;3.00;;
18796;SDS011;9526;52.612;13.300;2023-02-28T12:51:35;5.28;;;3.30;;
18796;SDS011;9526;52.612;13.300;2023-02-28T12:54:02;5.97;;;3.17;;
18796;SDS011;9526;52.612;13.300;2023-02-28T12:56:40;6.15;;;3.15;;
18796;SDS011;9526;52.612;13.300;2023-02-28T12:59:13;4.82;;;3.08;;
18796;SDS011;9526;52.612;13.300;2023-02-28T13:01:52;4.15;;;3.35;;
18796;SDS011;9526;52.612;13.300;2023-02-28T13:04:34;4.63;;;3.03;;
18796;SDS011;9526;52.612;13.300;2023-02-28T13:07:33;8.80;;;3.28;;
18796;SDS011;9526;52.612;13.300;2023-02-28T13:10:37;5.43;;;3.35;;
18796;SDS011;9526;52.612;13.300;2023-02-28T13:13:03;5.38;;;3.08;;
18796;SDS011;9526;52.612;13.300;2023-02-28T13:15:27;7.05;;;3.55;;
18796;SDS011;9526;52.612;13.300;2023-02-28T13:17:54;5.97;;;3.42;;
18796;SDS011;9526;52.612;13.300;2023-02-28T13:20:20;5.10;;;3.22;;
18796;SDS011;9526;52.612;13.300;2023-02-28T13:22:46;7.03;;;3.55;;
18796;SDS011;9526;52.612;13.300;2023-02-28T13:31:26;5.47;;;3.20;;
18796;SDS011;9526;52.612;13.300;2023-02-28T13:36:46;7.25;;;3.45;;
18796;SDS011;9526;52.612;13.300;2023-02-28T13:42:32;5.88;;;3.50;;
18796;SDS011;9526;52.612;13.300;2023-02-28T13:47:51;10.27;;;3.58;;
18796;SDS011;9526;52.612;13.300;2023-02-28T13:50:22;5.47;;;3.35;;
18796;SDS011;9526;52.612;13.300;2023-02-28T13:52:57;5.78;;;3.40;;
18796;SDS011;9526;52.612;13.300;2023-02-28T13:56:03;5.60;;;3.42;;
18796;SDS011;9526;52.612;13.300;2023-02-28T13:58:49;5.47;;;3.42;;
18796;SDS011;9526;52.612;13.300;2023-02-28T14:01:23;8.60;;;3.50;;
18796;SDS011;9526;52.612;13.300;2023-02-28T14:04:09;7.83;;;3.30;;
18796;SDS011;9526;52.612;13.300;2023-02-28T14:07:09;9.98;;;3.13;;
18796;SDS011;9526;52.612;13.300;2023-02-28T14:09:40;5.50;;;3.10;;
18796;SDS011;9526;52.612;13.300;2023-02-28T14:15:26;5.17;;;3.20;;
18796;SDS011;9526;52.612;13.300;2023-02-28T14:18:01;5.63;;;3.20;;
18796;SDS011;9526;52.612;13.300;2023-02-28T14:20:29;8.07;;;3.40;;
18796;SDS011;9526;52.612;13.300;2023-02-28T14:22:58;6.82;;;3.38;;
18796;SDS011;9526;52.612;13.300;2023-02-28T14:25:32;6.13;;;3.40;;
18796;SDS011;9526;52.612;13.300;2023-02-28T14:28:05;6.35;;;3.40;;
18796;SDS011;9526;52.612;13.300;2023-02-28T14:33:33;5.93;;;3.30;;
18796;SDS011;9526;52.612;13.300;2023-02-28T14:36:16;6.47;;;3.37;;
18796;SDS011;9526;52.612;13.300;2023-02-28T14:38:46;4.90;;;2.97;;
18796;SDS011;9526;52.612;13.300;2023-02-28T14:41:16;5.30;;;3.10;;
18796;SDS011;9526;52.612;13.300;2023-02-28T14:46:37;5.40;;;2.97;;
18796;SDS011;9526;52.612;13.300;2023-02-28T14:49:03;4.90;;;3.10;;
18796;SDS011;9526;52.612;13.300;2023-02-28T14:51:28;5.97;;;3.30;;
18796;SDS011;9526;52.612;13.300;2023-02-28T14:53:56;6.27;;;3.33;;
18796;SDS011;9526;52.612;13.300;2023-02-28T14:56:34;6.00;;;3.53;;
18796;SDS011;9526;52.612;13.300;2023-02-28T14:58:59;5.53;;;3.38;;
18796;SDS011;9526;52.612;13.300;2023-02-28T15:01:23;4.87;;;3.27;;
18796;SDS011;9526;52.612;13.300;2023-02-28T15:03:48;7.37;;;3.23;;
18796;SDS011;9526;52.612;13.300;2023-02-28T15:06:22;6.93;;;3.72;;
18796;SDS011;9526;52.612;13.300;2023-02-28T15:08:48;6.20;;;3.03;;
18796;SDS011;9526;52.612;13.300;2023-02-28T15:11:37;5.32;;;3.20;;
18796;SDS011;9526;52.612;13.300;2023-02-28T15:14:03;5.05;;;3.20;;
18796;SDS011;9526;52.612;13.300;2023-02-28T15:16:28;7.27;;;3.50;;
18796;SDS011;9526;52.612;13.300;2023-02-28T15:18:57;5.50;;;3.30;;